createdAt,value
2023-05-19T00:01:48.567Z,100587.50
2023-05-19T00:04:19.156Z,100579.72
2023-05-19T00:06:53.810Z,100549.06
2023-05-19T00:09:26.598Z,100525.59
2023-05-19T00:11:56.973Z,100521.22
2023-05-19T00:14:29.150Z,100521.28
2023-05-19T00:17:02.072Z,100495.09
2023-05-19T00:19:32.560Z,100473.44
2023-05-19T00:22:02.317Z,100442.94
2023-05-19T00:24:34.754Z,100430.84
2023-05-19T00:27:04.491Z,100436.34
2023-05-19T00:29:34.213Z,100439.88
2023-05-19T00:32:04.087Z,100444.41
2023-05-19T00:34:33.905Z,100442.81
2023-05-19T00:37:03.624Z,100442.09
2023-05-19T00:39:35.951Z,100438.69
2023-05-19T00:42:06.060Z,100431.84
2023-05-19T00:44:35.732Z,100429.28
2023-05-19T00:47:05.562Z,100420.66
2023-05-19T00:49:35.459Z,100399.88
2023-05-19T00:52:05.298Z,100379.06
2023-05-19T00:54:37.901Z,100357.25
2023-05-19T00:57:08.282Z,100341.72
2023-05-19T00:59:38.039Z,100338.34
2023-05-19T01:02:07.999Z,100347.19
2023-05-19T01:04:39.606Z,100344.63
2023-05-19T01:07:10.604Z,100350.84
2023-05-19T01:09:43.529Z,100344.91
2023-05-19T01:12:13.738Z,100351.13
2023-05-19T01:14:43.608Z,100349.50
2023-05-19T01:17:17.818Z,100332.97
2023-05-19T01:20:02.555Z,100327.91
2023-05-19T01:22:45.669Z,100319.22
2023-05-19T01:25:59.797Z,100299.25
2023-05-19T01:28:35.464Z,100294.13
2023-05-19T01:31:08.278Z,100292.50
2023-05-19T01:33:38.971Z,100291.63
2023-05-19T01:36:10.733Z,100296.16
2023-05-19T01:38:41.275Z,100280.50
2023-05-19T01:41:11.398Z,100279.84
2023-05-19T01:43:41.590Z,100271.06
2023-05-19T01:46:14.403Z,100282.56
2023-05-19T01:48:45.609Z,100289.63
2023-05-19T01:51:16.593Z,100269.63
2023-05-19T01:53:46.498Z,100254.03
2023-05-19T01:56:20.162Z,100244.53
2023-05-19T01:58:51.786Z,100243.84
2023-05-19T02:01:34.190Z,100227.19
2023-05-19T02:04:13.376Z,100217.69
2023-05-19T02:06:45.556Z,100214.34
2023-05-19T02:09:19.035Z,100208.38
2023-05-19T02:11:50.513Z,100204.00
2023-05-19T02:14:23.866Z,100199.69
2023-05-19T02:16:57.033Z,100190.09
2023-05-19T02:19:28.109Z,100178.03
2023-05-19T02:21:58.619Z,100171.16
2023-05-19T02:24:28.508Z,100165.13
2023-05-19T02:26:58.290Z,100164.34
2023-05-19T02:29:28.080Z,100156.50
2023-05-19T02:32:00.446Z,100163.50
2023-05-19T02:34:30.194Z,100139.13
2023-05-19T02:36:59.907Z,100111.34
2023-05-19T02:39:35.014Z,100085.19
2023-05-19T02:42:05.059Z,100089.69
2023-05-19T02:44:34.793Z,100076.66
2023-05-19T02:47:07.675Z,100075.03
2023-05-19T02:49:38.005Z,100055.03
2023-05-19T02:52:08.681Z,100031.59
2023-05-19T02:54:38.500Z,100029.03
2023-05-19T02:57:08.473Z,100016.91
2023-05-19T02:59:38.362Z,100017.91
2023-05-19T03:02:11.552Z,100013.59
2023-05-19T03:04:41.902Z,100009.28
2023-05-19T03:07:13.558Z,99997.16
2023-05-19T03:09:43.322Z,99990.28
2023-05-19T03:12:13.056Z,99967.69
2023-05-19T03:14:43.910Z,99974.78
2023-05-19T03:17:16.315Z,99960.97
2023-05-19T03:19:46.121Z,99962.03
2023-05-19T03:22:15.853Z,99966.47
2023-05-19T03:24:46.104Z,99964.78
2023-05-19T03:27:16.674Z,99965.78
2023-05-19T03:29:46.515Z,99770.28
2023-05-19T03:32:19.957Z,99758.16
2023-05-19T03:34:50.063Z,99759.19
2023-05-19T03:37:20.131Z,99752.25
2023-05-19T03:39:49.882Z,99752.31
2023-05-19T03:42:20.023Z,99744.59
2023-05-19T03:44:49.784Z,99723.81
2023-05-19T03:47:22.856Z,99657.50
2023-05-19T03:49:55.374Z,99572.91
2023-05-19T03:52:53.750Z,99573.88
2023-05-19T03:55:31.828Z,99565.22
2023-05-19T03:58:02.659Z,99560.06
2023-05-19T04:00:32.684Z,99554.03
2023-05-19T04:03:05.421Z,99551.44
2023-05-19T04:05:36.735Z,99548.81
2023-05-19T04:08:06.534Z,99550.63
2023-05-19T04:10:36.564Z,99548.91
2023-05-19T04:13:06.347Z,99538.44
2023-05-19T04:15:36.530Z,99531.44
2023-05-19T04:18:09.057Z,99512.25
2023-05-19T04:20:38.949Z,99496.63
2023-05-19T04:23:08.839Z,99480.84
2023-05-19T04:25:40.944Z,99460.75
2023-05-19T04:28:10.938Z,99446.69
2023-05-19T04:30:40.753Z,99436.34
2023-05-19T04:33:13.216Z,99425.88
2023-05-19T04:35:43.974Z,99421.47
2023-05-19T04:38:19.070Z,99411.06
2023-05-19T04:40:52.171Z,99397.91
2023-05-19T04:43:22.395Z,99398.75
2023-05-19T04:45:53.598Z,99395.28
2023-05-19T04:48:27.555Z,99393.59
2023-05-19T04:50:57.973Z,99396.94
2023-05-19T04:53:28.650Z,99386.47
2023-05-19T04:55:58.785Z,99381.84
2023-05-19T04:58:28.652Z,99375.69
2023-05-19T05:00:58.744Z,99364.19
2023-05-19T05:03:31.282Z,99325.69
2023-05-19T05:06:01.482Z,99315.00
2023-05-19T05:08:31.261Z,99303.53
2023-05-19T05:11:02.646Z,99295.50
2023-05-19T05:13:33.388Z,99286.59
2023-05-19T05:16:04.824Z,99270.66
2023-05-19T05:18:38.786Z,99254.81
2023-05-19T05:21:10.629Z,99227.59
2023-05-19T05:23:41.004Z,99214.50
2023-05-19T05:26:13.800Z,99206.44
2023-05-19T05:28:44.372Z,99197.56
2023-05-19T05:31:14.171Z,99193.03
2023-05-19T05:33:46.806Z,99207.75
2023-05-19T05:36:17.889Z,99198.88
2023-05-19T05:38:47.636Z,99206.53
2023-05-19T05:41:18.490Z,99207.28
2023-05-19T05:43:50.138Z,99211.44
2023-05-19T05:46:21.077Z,99209.53
2023-05-19T05:48:54.354Z,99197.09
2023-05-19T05:51:25.148Z,99187.22
2023-05-19T05:53:57.087Z,99180.13
2023-05-19T05:56:37.152Z,99167.72
2023-05-19T05:59:08.823Z,99144.72
2023-05-19T06:01:38.666Z,99133.16
2023-05-19T06:04:14.339Z,99125.00
2023-05-19T06:06:45.311Z,99104.78
2023-05-19T06:09:18.633Z,99092.25
2023-05-19T06:11:48.477Z,99070.94
2023-05-19T06:14:18.914Z,99055.06
2023-05-19T06:17:08.899Z,99027.63
2023-05-19T06:19:41.324Z,99011.63
2023-05-19T06:22:11.070Z,98984.22
2023-05-19T06:24:41.095Z,98952.31
2023-05-19T06:27:12.472Z,98942.38
2023-05-19T06:29:42.243Z,98932.97
2023-05-19T06:32:12.475Z,98936.84
2023-05-19T06:34:45.777Z,98931.13
2023-05-19T06:37:19.685Z,98924.50
2023-05-19T06:39:49.866Z,98914.38
2023-05-19T06:42:22.289Z,98899.97
2023-05-19T06:44:59.646Z,98889.72
2023-05-19T06:47:30.393Z,98886.53
2023-05-19T06:50:02.977Z,98877.03
2023-05-19T06:52:37.185Z,98886.00
2023-05-19T06:55:08.231Z,98896.50
2023-05-19T06:57:40.624Z,98912.34
2023-05-19T07:00:14.592Z,98922.63
2023-05-19T07:02:49.251Z,98971.72
2023-05-19T07:05:22.119Z,99030.78
2023-05-19T07:07:57.538Z,99139.88
2023-05-19T07:10:30.442Z,99297.38
2023-05-19T07:13:00.983Z,99443.47
2023-05-19T07:15:34.505Z,99564.47
2023-05-19T07:18:04.259Z,99641.72
2023-05-19T07:20:36.617Z,99686.31
2023-05-19T07:23:07.246Z,99793.38
2023-05-19T07:25:38.532Z,99852.00
2023-05-19T07:28:08.309Z,99960.00
2023-05-19T07:30:39.153Z,99998.59
2023-05-19T07:33:09.543Z,100041.50
2023-05-19T07:35:41.949Z,100057.09
2023-05-19T07:38:11.758Z,100126.41
2023-05-19T07:40:41.563Z,100174.56
2023-05-19T07:43:11.585Z,100288.06
2023-05-19T07:45:41.543Z,100414.53
2023-05-19T07:48:11.463Z,100499.09
2023-05-19T07:50:43.759Z,100540.28
2023-05-19T07:53:13.601Z,100579.78
2023-05-19T07:55:43.398Z,100594.44
2023-05-19T07:58:13.085Z,100651.53
2023-05-19T08:00:43.491Z,100687.56
2023-05-19T08:03:13.409Z,100818.25
2023-05-19T08:05:46.151Z,100864.00
2023-05-19T08:08:17.003Z,100906.47
2023-05-19T08:10:46.833Z,100900.81
2023-05-19T08:13:16.519Z,100940.25
2023-05-19T08:15:46.403Z,101025.50
2023-05-19T08:18:16.117Z,100999.13
2023-05-19T08:20:48.842Z,100953.63
2023-05-19T08:23:18.627Z,100996.22
2023-05-19T08:25:48.534Z,101039.41
2023-05-19T08:28:18.324Z,101046.72
2023-05-19T08:30:48.037Z,101078.72
2023-05-19T08:33:17.750Z,101107.59
2023-05-19T08:35:50.770Z,101157.56
2023-05-19T08:38:20.961Z,101180.13
2023-05-19T08:40:51.157Z,101214.00
2023-05-19T08:43:20.952Z,101240.88
2023-05-19T08:45:50.646Z,101288.59
2023-05-19T08:48:21.624Z,101473.44
2023-05-19T08:51:02.940Z,101502.44
2023-05-19T08:53:39.856Z,101520.50
2023-05-19T08:56:13.748Z,101524.47
2023-05-19T08:58:44.461Z,101526.28
2023-05-19T09:01:17.236Z,101523.88
2023-05-19T09:03:50.192Z,101527.75
2023-05-19T09:06:22.928Z,101542.88
2023-05-19T09:08:52.760Z,101535.22
2023-05-19T09:11:22.673Z,101531.69
2023-05-19T09:13:52.598Z,101527.50
2023-05-19T09:16:22.534Z,101540.50
2023-05-19T09:19:01.846Z,101552.25
2023-05-19T09:21:34.560Z,101553.00
2023-05-19T09:24:08.473Z,101553.84
2023-05-19T09:26:42.301Z,101539.06
2023-05-19T09:29:16.161Z,101547.16
2023-05-19T09:31:52.728Z,101556.16
2023-05-19T09:34:24.911Z,101565.69
2023-05-19T09:36:58.112Z,101567.03
2023-05-19T09:39:29.017Z,101561.75
2023-05-19T09:41:59.635Z,101560.44
2023-05-19T09:44:31.444Z,101554.34
2023-05-19T09:47:02.369Z,101557.50
2023-05-19T09:49:33.104Z,101566.28
2023-05-19T09:52:06.539Z,101560.47
2023-05-19T09:54:37.723Z,101558.66
2023-05-19T09:57:08.945Z,101564.75
2023-05-19T09:59:39.201Z,101557.59
2023-05-19T10:02:09.187Z,101550.72
2023-05-19T10:04:39.360Z,101536.63
2023-05-19T10:07:13.176Z,101540.47
2023-05-19T10:09:44.158Z,101539.22
2023-05-19T10:12:14.378Z,101548.94
2023-05-19T10:14:44.371Z,101550.38
2023-05-19T10:17:14.534Z,101544.47
2023-05-19T10:19:44.404Z,101553.81
2023-05-19T10:22:16.760Z,101559.53
2023-05-19T10:24:46.520Z,101557.44
2023-05-19T10:27:17.423Z,101546.84
2023-05-19T10:29:52.083Z,101542.03
2023-05-19T10:32:25.273Z,101547.88
2023-05-19T10:35:24.542Z,101554.94
2023-05-19T10:38:01.656Z,101544.31
2023-05-19T10:40:35.916Z,101537.69
2023-05-19T10:43:14.558Z,101552.81
2023-05-19T10:45:49.213Z,101537.38
2023-05-19T10:48:19.357Z,101547.78
2023-05-19T10:50:49.649Z,101542.91
2023-05-19T10:53:23.086Z,101532.03
2023-05-19T10:55:59.244Z,101529.50
2023-05-19T10:58:52.304Z,101529.13
2023-05-19T11:01:25.002Z,101528.31
2023-05-19T11:03:57.612Z,101520.63
2023-05-19T11:06:29.798Z,101529.50
2023-05-19T11:09:05.026Z,101529.44
2023-05-19T11:11:48.264Z,101535.53
2023-05-19T11:14:19.844Z,101532.00
2023-05-19T11:16:50.515Z,101532.09
2023-05-19T11:19:22.297Z,101529.72
2023-05-19T11:21:55.159Z,101524.63
2023-05-19T11:24:40.763Z,101531.91
2023-05-19T11:27:23.473Z,101522.50
2023-05-19T11:29:54.083Z,101516.66
2023-05-19T11:32:24.397Z,101527.75
2023-05-19T11:34:54.905Z,101517.03
2023-05-19T11:37:24.944Z,101512.91
2023-05-19T11:39:57.339Z,101510.13
2023-05-19T11:42:27.233Z,101515.19
2023-05-19T11:44:58.541Z,101512.50
2023-05-19T11:47:28.907Z,101516.16
2023-05-19T11:49:59.485Z,101510.59
2023-05-19T11:52:30.677Z,101501.41
2023-05-19T11:55:05.514Z,101495.41
2023-05-19T11:57:35.252Z,101508.34
2023-05-19T12:00:09.139Z,101506.41
2023-05-19T12:02:39.089Z,101500.94
2023-05-19T12:05:21.906Z,101492.19
2023-05-19T12:07:52.396Z,101491.22
2023-05-19T12:10:25.724Z,101496.03
2023-05-19T12:12:56.130Z,101491.56
2023-05-19T12:15:27.175Z,101487.91
2023-05-19T12:18:00.496Z,101495.19
2023-05-19T12:20:32.100Z,101495.59
2023-05-19T12:23:02.074Z,101476.56
2023-05-19T12:25:34.943Z,101477.19
2023-05-19T12:28:05.739Z,101479.13
2023-05-19T12:30:36.030Z,101478.94
2023-05-19T12:33:06.136Z,101475.19
2023-05-19T12:35:36.556Z,101467.03
2023-05-19T12:38:07.461Z,101473.34
2023-05-19T12:40:40.287Z,101483.31
2023-05-19T12:43:10.632Z,101468.00
2023-05-19T12:45:40.774Z,101475.06
2023-05-19T12:48:16.205Z,101469.81
2023-05-19T12:50:47.045Z,101463.19
2023-05-19T12:53:19.276Z,101464.59
2023-05-19T12:55:55.601Z,101454.28
2023-05-19T12:58:25.636Z,101450.53
2023-05-19T13:01:01.625Z,101451.38
2023-05-19T13:03:31.621Z,101445.06
2023-05-19T13:06:02.017Z,101444.13
2023-05-19T13:08:32.055Z,101453.44
2023-05-19T13:11:04.579Z,101445.41
2023-05-19T13:13:34.983Z,101449.91
2023-05-19T13:16:04.849Z,101448.81
2023-05-19T13:18:37.849Z,101442.38
2023-05-19T13:21:08.327Z,101442.94
2023-05-19T13:23:38.037Z,101445.19
2023-05-19T13:26:12.779Z,101447.97
2023-05-19T13:28:42.562Z,101445.84
2023-05-19T13:31:12.328Z,101437.69
2023-05-19T13:33:42.301Z,101445.09
2023-05-19T13:36:12.125Z,101446.47
2023-05-19T13:38:42.086Z,101449.69
2023-05-19T13:41:16.035Z,101451.72
2023-05-19T13:43:46.077Z,101443.25
2023-05-19T13:46:15.861Z,101439.59
2023-05-19T13:48:45.573Z,101434.69
2023-05-19T13:51:15.374Z,101437.28
2023-05-19T13:53:45.199Z,101436.31
2023-05-19T13:56:17.633Z,101435.34
2023-05-19T13:58:47.894Z,101422.69
2023-05-19T14:01:17.685Z,101434.69
2023-05-19T14:03:47.464Z,101423.75
2023-05-19T14:06:17.276Z,101417.34
2023-05-19T14:08:48.156Z,101423.13
2023-05-19T14:11:23.510Z,101420.00
2023-05-19T14:13:53.470Z,101430.72
2023-05-19T14:16:26.249Z,101422.88
2023-05-19T14:18:56.191Z,101428.78
2023-05-19T14:21:26.000Z,101423.44
2023-05-19T14:23:55.777Z,101424.81
2023-05-19T14:26:29.397Z,101427.59
2023-05-19T14:28:59.776Z,101422.47
2023-05-19T14:31:29.542Z,101438.53
2023-05-19T14:33:59.282Z,101421.41
2023-05-19T14:36:29.029Z,101425.13
2023-05-19T14:38:58.768Z,101418.41
2023-05-19T14:41:31.294Z,101427.41
2023-05-19T14:44:01.013Z,101430.19
2023-05-19T14:46:30.779Z,101423.97
2023-05-19T14:49:00.735Z,101416.78
2023-05-19T14:51:30.444Z,101423.53
2023-05-19T14:54:00.365Z,101414.66
2023-05-19T14:56:32.733Z,101414.44
2023-05-19T14:59:04.520Z,101411.31
2023-05-19T15:01:34.374Z,101416.69
2023-05-19T15:04:04.152Z,101423.44
2023-05-19T15:06:34.001Z,101413.16
2023-05-19T15:09:04.182Z,101401.81
2023-05-19T15:11:36.790Z,101408.63
2023-05-19T15:14:06.598Z,101413.50
2023-05-19T15:16:36.379Z,101417.09
2023-05-19T15:19:06.133Z,101409.72
2023-05-19T15:21:35.863Z,101405.09
2023-05-19T15:24:05.588Z,101398.78
2023-05-19T15:26:37.944Z,101394.19
2023-05-19T15:29:07.672Z,101398.59
2023-05-19T15:31:38.433Z,101400.59
2023-05-19T15:34:08.452Z,101397.19
2023-05-19T15:36:38.183Z,101386.25
2023-05-19T15:39:07.925Z,101390.75
2023-05-19T15:41:40.262Z,101400.84
2023-05-19T15:44:10.042Z,101395.25
2023-05-19T15:46:39.849Z,101406.19
2023-05-19T15:49:09.554Z,101393.66
2023-05-19T15:51:42.823Z,101392.25
2023-05-19T15:54:12.555Z,101390.56
2023-05-19T15:56:44.909Z,101386.28
2023-05-19T15:59:14.668Z,101391.75
2023-05-19T16:01:44.829Z,101395.47
2023-05-19T16:04:15.029Z,101376.97
2023-05-19T16:06:45.196Z,101390.34
2023-05-19T16:09:14.908Z,101370.63
2023-05-19T16:11:47.393Z,101376.66
2023-05-19T16:14:17.224Z,101376.66
2023-05-19T16:16:47.393Z,101377.63
2023-05-19T16:19:17.355Z,101380.41
2023-05-19T16:21:47.081Z,101369.69
2023-05-19T16:24:16.832Z,101364.00
2023-05-19T16:26:49.161Z,101354.03
2023-05-19T16:29:18.995Z,101360.59
2023-05-19T16:31:48.756Z,101365.94
2023-05-19T16:34:18.974Z,101368.81
2023-05-19T16:36:48.703Z,101362.09
2023-05-19T16:39:18.474Z,101367.56
2023-05-19T16:41:50.936Z,101355.88
2023-05-19T16:44:21.005Z,101364.22
2023-05-19T16:46:50.782Z,101359.84
2023-05-19T16:49:20.452Z,101356.53
2023-05-19T16:51:50.213Z,101352.03
2023-05-19T16:54:19.952Z,101362.06
2023-05-19T16:56:52.842Z,101358.78
2023-05-19T16:59:22.717Z,101360.38
2023-05-19T17:01:52.531Z,101353.31
2023-05-19T17:04:22.229Z,101352.56
2023-05-19T17:06:52.188Z,101354.16
2023-05-19T17:09:25.468Z,101357.69
2023-05-19T17:11:58.525Z,101347.63
2023-05-19T17:14:28.857Z,101357.28
2023-05-19T17:16:58.902Z,101349.00
2023-05-19T17:19:28.907Z,101351.69
2023-05-19T17:21:58.746Z,101350.31
2023-05-19T17:24:28.947Z,101352.56
2023-05-19T17:27:01.226Z,101351.06
2023-05-19T17:29:31.008Z,101341.72
2023-05-19T17:32:00.764Z,101342.50
2023-05-19T17:34:30.813Z,101348.38
2023-05-19T17:37:00.569Z,101344.53
2023-05-19T17:39:30.285Z,101349.81
2023-05-19T17:42:02.782Z,101361.09
2023-05-19T17:44:32.575Z,101363.59
2023-05-19T17:47:02.577Z,101369.25
2023-05-19T17:49:32.339Z,101363.66
2023-05-19T17:52:02.693Z,101366.59
2023-05-19T17:54:33.203Z,101370.97
2023-05-19T17:57:06.800Z,101362.25
2023-05-19T17:59:37.562Z,101366.44
2023-05-19T18:02:08.210Z,101373.66
2023-05-19T18:04:38.758Z,101371.94
2023-05-19T18:07:10.153Z,101379.28
2023-05-19T18:09:40.088Z,101378.31
2023-05-19T18:12:12.733Z,101370.03
2023-05-19T18:14:42.956Z,101378.56
2023-05-19T18:17:12.739Z,101375.56
2023-05-19T18:19:42.605Z,101370.81
2023-05-19T18:22:14.974Z,101374.13
2023-05-19T18:24:44.739Z,101379.09
2023-05-19T18:27:17.137Z,101381.44
2023-05-19T18:29:46.887Z,101364.09
2023-05-19T18:32:17.921Z,101372.03
2023-05-19T18:34:47.783Z,101369.84
2023-05-19T18:37:17.487Z,101370.97
2023-05-19T18:39:47.301Z,101370.50
2023-05-19T18:42:19.644Z,101374.63
2023-05-19T18:44:50.785Z,101377.88
2023-05-19T18:47:22.956Z,101372.28
2023-05-19T18:49:52.844Z,101377.13
2023-05-19T18:52:22.538Z,101379.34
2023-05-19T18:54:52.278Z,101382.56
2023-05-19T18:57:24.608Z,101392.75
2023-05-19T18:59:54.441Z,101380.84
2023-05-19T19:02:24.210Z,101374.44
2023-05-19T19:04:54.154Z,101382.78
2023-05-19T19:07:24.015Z,101381.66
2023-05-19T19:09:53.703Z,101382.75
2023-05-19T19:12:26.335Z,101394.84
2023-05-19T19:14:56.100Z,101373.97
2023-05-19T19:17:26.011Z,101374.41
2023-05-19T19:19:56.138Z,101373.06
2023-05-19T19:22:26.336Z,101364.59
2023-05-19T19:24:56.352Z,101371.22
2023-05-19T19:27:31.154Z,101374.31
2023-05-19T19:30:01.507Z,101376.56
2023-05-19T19:32:31.603Z,101387.75
2023-05-19T19:35:01.391Z,101373.09
2023-05-19T19:37:31.104Z,101376.38
2023-05-19T19:40:00.969Z,101368.66
2023-05-19T19:42:34.300Z,101374.47
2023-05-19T19:45:04.283Z,101375.94
2023-05-19T19:47:34.021Z,101370.06
2023-05-19T19:50:05.886Z,101364.50
2023-05-19T19:52:35.791Z,101366.63
2023-05-19T19:55:05.749Z,101353.06
2023-05-19T19:57:38.084Z,101347.13
2023-05-19T20:00:10.454Z,101343.25
2023-05-19T20:02:55.312Z,101338.22
2023-05-19T20:05:30.147Z,101343.00
2023-05-19T20:08:00.026Z,101341.59
2023-05-19T20:10:29.902Z,101333.88
2023-05-19T20:13:02.246Z,101325.25
2023-05-19T20:15:31.999Z,101331.75
2023-05-19T20:18:01.769Z,101330.28
2023-05-19T20:20:31.784Z,101332.31
2023-05-19T20:23:01.632Z,101320.19
2023-05-19T20:25:31.382Z,101311.63
2023-05-19T20:28:04.168Z,101322.47
2023-05-19T20:30:34.019Z,101313.91
2023-05-19T20:33:03.949Z,101301.78
2023-05-19T20:35:34.488Z,101302.16
2023-05-19T20:38:05.049Z,101302.34
2023-05-19T20:40:35.266Z,101302.56
2023-05-19T20:43:08.018Z,101285.19
2023-05-19T20:45:37.956Z,101275.59
2023-05-19T20:48:08.911Z,101265.38
2023-05-19T20:50:38.641Z,101258.56
2023-05-19T20:53:08.570Z,101252.47
2023-05-19T20:55:38.816Z,101248.22
2023-05-19T20:58:11.431Z,101246.69
2023-05-19T21:00:41.157Z,101267.28
2023-05-19T21:03:11.660Z,101251.56
2023-05-19T21:05:41.565Z,101255.38
2023-05-19T21:08:12.962Z,101246.75
2023-05-19T21:10:42.857Z,101218.75
2023-05-19T21:13:15.254Z,101226.78
2023-05-19T21:15:45.033Z,101217.34
2023-05-19T21:18:15.123Z,101203.34
2023-05-19T21:20:44.960Z,101201.78
2023-05-19T21:23:15.476Z,101213.47
2023-05-19T21:25:45.559Z,101220.66
2023-05-19T21:28:18.124Z,101206.75
2023-05-19T21:30:50.597Z,101194.56
2023-05-19T21:33:20.372Z,101185.97
2023-05-19T21:35:50.162Z,101166.84
2023-05-19T21:38:23.878Z,101138.69
2023-05-19T21:40:54.547Z,101141.63
2023-05-19T21:43:27.014Z,101115.28
2023-05-19T21:45:56.875Z,101100.69
2023-05-19T21:48:27.373Z,101083.25
2023-05-19T21:50:58.022Z,101058.06
2023-05-19T21:53:28.382Z,101024.75
2023-05-19T21:55:58.199Z,101002.19
2023-05-19T21:58:30.649Z,100982.03
2023-05-19T22:01:00.572Z,100944.31
2023-05-19T22:03:30.334Z,100951.66
2023-05-19T22:06:00.162Z,100962.38
2023-05-19T22:08:29.808Z,100947.53
2023-05-19T22:10:59.641Z,100927.41
2023-05-19T22:13:32.117Z,100917.94
2023-05-19T22:16:04.510Z,100873.03
2023-05-19T22:18:34.338Z,100851.31
2023-05-19T22:21:04.159Z,100840.88
2023-05-19T22:23:34.002Z,100835.94
2023-05-19T22:26:03.705Z,100825.59
2023-05-19T22:28:36.012Z,100805.66
2023-05-19T22:31:06.155Z,100785.63
2023-05-19T22:33:35.979Z,100769.19
2023-05-19T22:36:05.701Z,100768.63
2023-05-19T22:38:35.421Z,100759.16
2023-05-19T22:41:05.188Z,100755.09
2023-05-19T22:43:37.520Z,100743.88
2023-05-19T22:46:07.808Z,100733.66
2023-05-19T22:48:37.542Z,100717.16
2023-05-19T22:51:07.614Z,100726.25
2023-05-19T22:53:37.329Z,100718.59
2023-05-19T22:56:07.491Z,100705.63
2023-05-19T22:58:39.900Z,100700.47
2023-05-19T23:01:09.878Z,100687.69
2023-05-19T23:03:39.594Z,100662.47
2023-05-19T23:06:09.406Z,100647.63
2023-05-19T23:08:39.189Z,100643.38
2023-05-19T23:11:09.100Z,100630.44
2023-05-19T23:13:41.707Z,100621.06
2023-05-19T23:16:11.444Z,100614.22
2023-05-19T23:18:41.295Z,100604.63
2023-05-19T23:21:10.992Z,100598.72
2023-05-19T23:23:40.665Z,100561.09
2023-05-19T23:26:10.475Z,100536.69
2023-05-19T23:28:42.871Z,100510.50
2023-05-19T23:31:13.001Z,100491.38
2023-05-19T23:33:42.856Z,100481.91
2023-05-19T23:36:13.699Z,100458.44
2023-05-19T23:38:43.483Z,100456.72
2023-05-19T23:41:13.315Z,100450.72
2023-05-19T23:43:45.867Z,100449.25
2023-05-19T23:46:15.771Z,100431.72
2023-05-19T23:48:45.678Z,100411.72
2023-05-19T23:51:15.611Z,100376.84
2023-05-19T23:53:45.656Z,100363.88
2023-05-19T23:56:15.363Z,100376.47
2023-05-19T23:58:47.622Z,100349.34
